createdAt,value
2022-07-31T00:00:11.276Z,99847.56
2022-07-31T00:02:12.891Z,99848.94
2022-07-31T00:04:14.531Z,99847.53
2022-07-31T00:06:18.690Z,99839.00
2022-07-31T00:08:20.428Z,99847.72
2022-07-31T00:10:22.249Z,99850.28
2022-07-31T00:12:23.940Z,99857.88
2022-07-31T00:14:25.777Z,99850.75
2022-07-31T00:16:27.797Z,99847.09
2022-07-31T00:18:29.460Z,99843.94
2022-07-31T00:20:31.106Z,99829.06
2022-07-31T00:22:32.944Z,99840.41
2022-07-31T00:24:34.638Z,99844.25
2022-07-31T00:26:36.317Z,99824.41
2022-07-31T00:28:38.025Z,99843.50
2022-07-31T00:30:39.728Z,99837.72
2022-07-31T00:32:42.171Z,99841.31
2022-07-31T00:34:43.868Z,99844.97
2022-07-31T00:36:45.539Z,99849.25
2022-07-31T00:38:48.002Z,99847.00
2022-07-31T00:40:50.586Z,99848.06
2022-07-31T00:42:52.251Z,99847.78
2022-07-31T00:44:53.892Z,99852.97
2022-07-31T00:46:55.617Z,99840.50
2022-07-31T00:48:57.322Z,99843.72
2022-07-31T00:50:59.004Z,99840.50
2022-07-31T00:53:01.332Z,99843.16
2022-07-31T00:55:03.888Z,99842.44
2022-07-31T00:57:05.928Z,99845.44
2022-07-31T00:59:07.992Z,99846.72
2022-07-31T01:01:09.750Z,99861.50
2022-07-31T01:03:11.503Z,99851.28
2022-07-31T01:05:13.165Z,99853.03
2022-07-31T01:07:14.838Z,99858.56
2022-07-31T01:09:16.838Z,99846.28
2022-07-31T01:11:33.548Z,99842.94
2022-07-31T01:13:40.946Z,99843.94
2022-07-31T01:15:44.171Z,99847.34
2022-07-31T01:17:48.585Z,99844.88
2022-07-31T01:19:51.970Z,99842.66
2022-07-31T01:22:33.761Z,99833.91
2022-07-31T01:24:55.185Z,99831.06
2022-07-31T01:27:04.224Z,99830.94
2022-07-31T01:29:28.568Z,99812.31
2022-07-31T01:31:42.620Z,99828.03
2022-07-31T01:33:52.345Z,99830.75
2022-07-31T01:36:08.172Z,99827.16
2022-07-31T01:38:22.672Z,99822.72
2022-07-31T01:40:36.471Z,99829.63
2022-07-31T01:42:40.974Z,99835.66
2022-07-31T01:44:45.947Z,99849.19
2022-07-31T01:46:48.667Z,99853.81
2022-07-31T01:48:52.796Z,99849.69
2022-07-31T01:50:57.146Z,99840.59
2022-07-31T01:53:00.946Z,99824.00
2022-07-31T01:55:04.212Z,99827.72
2022-07-31T01:57:07.570Z,99846.56
2022-07-31T01:59:20.538Z,99855.88
2022-07-31T02:01:27.518Z,99865.16
2022-07-31T02:03:44.372Z,99850.41
2022-07-31T02:05:49.062Z,99859.59
2022-07-31T02:07:53.829Z,99867.00
2022-07-31T02:09:58.934Z,99879.84
2022-07-31T02:12:01.678Z,99879.53
2022-07-31T02:14:05.408Z,99872.44
2022-07-31T02:16:07.806Z,99877.16
2022-07-31T02:18:11.164Z,99881.94
2022-07-31T02:20:15.534Z,99877.91
2022-07-31T02:22:17.584Z,99865.56
2022-07-31T02:24:19.228Z,99858.03
2022-07-31T02:26:22.173Z,99853.16
2022-07-31T02:28:24.886Z,99848.22
2022-07-31T02:30:39.199Z,99846.59
2022-07-31T02:32:44.732Z,99827.25
2022-07-31T02:34:47.669Z,99826.59
2022-07-31T02:36:51.632Z,99830.50
2022-07-31T02:38:55.361Z,99830.00
2022-07-31T02:40:59.960Z,99849.66
2022-07-31T02:43:02.006Z,99846.34
2022-07-31T02:45:06.421Z,99847.41
2022-07-31T02:47:08.502Z,99828.66
2022-07-31T02:49:13.900Z,99825.75
2022-07-31T02:51:16.202Z,99839.84
2022-07-31T02:53:18.574Z,99849.78
2022-07-31T02:55:20.270Z,99844.00
2022-07-31T02:57:21.947Z,99825.63
2022-07-31T02:59:24.019Z,99826.50
2022-07-31T03:01:25.903Z,99818.13
2022-07-31T03:03:27.846Z,99804.47
2022-07-31T03:05:31.416Z,99811.88
2022-07-31T03:07:33.061Z,99800.88
2022-07-31T03:09:34.717Z,99807.63
2022-07-31T03:11:36.629Z,99817.09
2022-07-31T03:13:39.737Z,99825.75
2022-07-31T03:15:43.191Z,99824.50
2022-07-31T03:17:54.689Z,99830.19
2022-07-31T03:19:56.440Z,99841.88
2022-07-31T03:21:59.411Z,99829.25
2022-07-31T03:24:03.116Z,99837.63
2022-07-31T03:26:05.608Z,99837.94
2022-07-31T03:28:07.255Z,99840.03
2022-07-31T03:30:16.485Z,99825.41
2022-07-31T03:32:18.198Z,99831.81
2022-07-31T03:34:19.823Z,99838.19
2022-07-31T03:36:22.223Z,99840.25
2022-07-31T03:38:41.374Z,99838.19
2022-07-31T03:40:44.162Z,99833.66
2022-07-31T03:42:47.759Z,99836.09
2022-07-31T03:44:49.606Z,99842.50
2022-07-31T03:46:51.295Z,99841.81
2022-07-31T03:48:53.401Z,99832.03
2022-07-31T03:50:55.562Z,99824.03
2022-07-31T03:52:58.403Z,99822.53
2022-07-31T03:55:00.206Z,99833.59
2022-07-31T03:57:02.608Z,99826.75
2022-07-31T03:59:04.602Z,99825.97
2022-07-31T04:01:10.559Z,99820.66
2022-07-31T04:03:14.488Z,99833.31
2022-07-31T04:05:16.121Z,99843.28
2022-07-31T04:07:17.849Z,99815.59
2022-07-31T04:09:20.376Z,99825.56
2022-07-31T04:11:22.092Z,99833.16
2022-07-31T04:13:23.844Z,99812.03
2022-07-31T04:15:25.684Z,99814.38
2022-07-31T04:17:27.420Z,99834.44
2022-07-31T04:19:32.696Z,99839.13
2022-07-31T04:21:34.575Z,99823.22
2022-07-31T04:23:36.230Z,99844.00
2022-07-31T04:25:37.897Z,99860.44
2022-07-31T04:27:45.598Z,99847.66
2022-07-31T04:29:50.302Z,99856.78
2022-07-31T04:31:51.968Z,99849.06
2022-07-31T04:33:56.795Z,99858.94
2022-07-31T04:35:58.894Z,99854.31
2022-07-31T04:38:01.067Z,99858.78
2022-07-31T04:40:03.130Z,99867.81
2022-07-31T04:42:09.529Z,99865.25
2022-07-31T04:44:13.049Z,99870.41
2022-07-31T04:46:17.539Z,99883.91
2022-07-31T04:48:19.735Z,99876.31
2022-07-31T04:50:21.443Z,99873.22
2022-07-31T04:52:23.079Z,99884.38
2022-07-31T04:54:24.891Z,99881.28
2022-07-31T04:56:44.864Z,99893.94
2022-07-31T04:58:46.482Z,99885.41
2022-07-31T05:00:48.115Z,99895.63
2022-07-31T05:02:49.780Z,99874.53
2022-07-31T05:04:54.330Z,99863.53
2022-07-31T05:06:58.947Z,99871.97
2022-07-31T05:09:04.336Z,99870.81
2022-07-31T05:11:23.305Z,99868.28
2022-07-31T05:13:25.022Z,99868.25
2022-07-31T05:15:26.984Z,99867.34
2022-07-31T05:17:28.609Z,99874.03
2022-07-31T05:19:30.493Z,99872.78
2022-07-31T05:21:32.483Z,99881.00
2022-07-31T05:23:34.125Z,99876.63
2022-07-31T05:25:35.761Z,99883.66
2022-07-31T05:27:38.972Z,99891.03
2022-07-31T05:29:42.963Z,99886.13
2022-07-31T05:31:59.635Z,99897.25
2022-07-31T05:34:02.385Z,99907.31
2022-07-31T05:36:04.950Z,99877.22
2022-07-31T05:38:06.583Z,99885.53
2022-07-31T05:40:13.647Z,99873.34
2022-07-31T05:42:15.293Z,99882.75
2022-07-31T05:44:16.933Z,99877.72
2022-07-31T05:46:18.674Z,99889.41
2022-07-31T05:48:21.476Z,99876.13
2022-07-31T05:50:23.426Z,99871.00
2022-07-31T05:52:25.142Z,99892.66
2022-07-31T05:54:26.947Z,99877.84
2022-07-31T05:56:28.618Z,99891.81
2022-07-31T05:58:30.289Z,99889.00
2022-07-31T06:00:32.706Z,99891.03
2022-07-31T06:02:34.926Z,99883.78
2022-07-31T06:04:36.604Z,99854.31
2022-07-31T06:06:38.397Z,99890.59
2022-07-31T06:08:40.018Z,99874.34
2022-07-31T06:10:41.828Z,99866.72
2022-07-31T06:12:43.609Z,99872.66
2022-07-31T06:14:45.813Z,99870.97
2022-07-31T06:16:49.787Z,99877.53
2022-07-31T06:18:52.501Z,99866.38
2022-07-31T06:20:54.234Z,99875.81
2022-07-31T06:22:56.343Z,99871.69
2022-07-31T06:24:57.974Z,99883.94
2022-07-31T06:27:00.398Z,99874.59
2022-07-31T06:29:02.110Z,99893.09
2022-07-31T06:31:03.773Z,99896.28
2022-07-31T06:33:08.121Z,99877.25
2022-07-31T06:35:10.730Z,99900.53
2022-07-31T06:37:12.368Z,99911.13
2022-07-31T06:39:14.020Z,99905.13
2022-07-31T06:41:35.648Z,99901.81
2022-07-31T06:43:37.413Z,99897.97
2022-07-31T06:45:51.295Z,99892.50
2022-07-31T06:47:54.317Z,99898.78
2022-07-31T06:49:56.293Z,99908.13
2022-07-31T06:51:57.926Z,99877.44
2022-07-31T06:54:05.121Z,99894.34
2022-07-31T06:56:06.797Z,99881.63
2022-07-31T06:58:08.433Z,99901.84
2022-07-31T07:00:19.539Z,99898.41
2022-07-31T07:02:22.198Z,99893.34
2022-07-31T07:04:23.842Z,99896.59
2022-07-31T07:06:45.545Z,99897.09
2022-07-31T07:08:47.561Z,99896.78
2022-07-31T07:10:49.215Z,99903.53
2022-07-31T07:12:50.970Z,99924.56
2022-07-31T07:14:53.004Z,99914.03
2022-07-31T07:16:54.661Z,99904.78
2022-07-31T07:18:56.676Z,99912.41
2022-07-31T07:20:58.411Z,99904.63
2022-07-31T07:23:00.047Z,99916.28
2022-07-31T07:25:01.851Z,99913.31
2022-07-31T07:27:03.603Z,99905.00
2022-07-31T07:29:05.308Z,99912.22
2022-07-31T07:31:07.027Z,99903.72
2022-07-31T07:33:08.688Z,99903.69
2022-07-31T07:35:12.550Z,99895.06
2022-07-31T07:37:14.246Z,99897.41
2022-07-31T07:39:15.900Z,99893.97
2022-07-31T07:41:18.554Z,99887.91
2022-07-31T07:43:20.498Z,99887.91
2022-07-31T07:45:22.354Z,99891.59
2022-07-31T07:47:24.071Z,99897.38
2022-07-31T07:49:25.813Z,99885.06
2022-07-31T07:51:27.684Z,99886.09
2022-07-31T07:53:29.353Z,99891.53
2022-07-31T07:55:37.353Z,99883.72
2022-07-31T07:57:39.959Z,99886.47
2022-07-31T07:59:42.343Z,99869.78
2022-07-31T08:01:43.974Z,99863.22
2022-07-31T08:03:49.332Z,99866.47
2022-07-31T08:05:53.650Z,99869.41
2022-07-31T08:07:55.281Z,99879.72
2022-07-31T08:09:58.117Z,99871.56
2022-07-31T08:12:00.465Z,99881.53
2022-07-31T08:14:02.131Z,99867.78
2022-07-31T08:16:04.033Z,99867.53
2022-07-31T08:18:05.876Z,99869.94
2022-07-31T08:20:08.087Z,99869.44
2022-07-31T08:22:09.738Z,99870.13
2022-07-31T08:24:11.628Z,99850.88
2022-07-31T08:26:13.989Z,99865.97
2022-07-31T08:28:19.503Z,99855.06
2022-07-31T08:30:30.893Z,99870.03
2022-07-31T08:32:32.840Z,99878.44
2022-07-31T08:34:35.562Z,99873.06
2022-07-31T08:36:40.042Z,99856.06
2022-07-31T08:38:41.681Z,99864.03
2022-07-31T08:40:43.815Z,99852.13
2022-07-31T08:42:46.916Z,99862.78
2022-07-31T08:44:48.663Z,99860.31
2022-07-31T08:46:55.170Z,99874.16
2022-07-31T08:48:58.166Z,99844.72
2022-07-31T08:51:03.432Z,99856.22
2022-07-31T08:53:06.498Z,99850.78
2022-07-31T08:55:09.194Z,99856.22
2022-07-31T08:57:13.067Z,99855.97
2022-07-31T08:59:17.541Z,99862.22
2022-07-31T09:01:19.371Z,99856.25
2022-07-31T09:03:21.316Z,99855.09
2022-07-31T09:05:25.177Z,99850.44
2022-07-31T09:07:26.875Z,99849.09
2022-07-31T09:09:45.219Z,99852.84
2022-07-31T09:11:54.844Z,99850.97
2022-07-31T09:14:03.215Z,99847.09
2022-07-31T09:16:05.952Z,99852.28
2022-07-31T09:18:22.058Z,99856.72
2022-07-31T09:20:26.670Z,99833.47
2022-07-31T09:22:30.024Z,99858.97
2022-07-31T09:24:36.939Z,99831.72
2022-07-31T09:26:41.400Z,99825.22
2022-07-31T09:28:45.944Z,99836.72
2022-07-31T09:30:55.646Z,99834.16
2022-07-31T09:33:19.912Z,99820.25
2022-07-31T09:35:21.577Z,99837.63
2022-07-31T09:37:26.417Z,99838.00
2022-07-31T09:39:28.822Z,99837.53
2022-07-31T09:41:57.901Z,99843.09
2022-07-31T09:43:55.016Z,99828.16
2022-07-31T09:45:59.355Z,99818.81
2022-07-31T09:48:14.385Z,99815.13
2022-07-31T09:50:24.612Z,99829.50
2022-07-31T09:52:29.434Z,99822.72
2022-07-31T09:54:31.587Z,99837.28
2022-07-31T09:56:34.663Z,99810.28
2022-07-31T09:58:36.319Z,99832.44
2022-07-31T10:00:38.727Z,99833.06
2022-07-31T10:02:40.920Z,99827.47
2022-07-31T10:04:44.030Z,99814.78
2022-07-31T10:06:48.949Z,99838.63
2022-07-31T10:08:51.467Z,99839.72
2022-07-31T10:10:53.170Z,99824.25
2022-07-31T10:12:56.536Z,99823.53
2022-07-31T10:15:03.810Z,99825.97
2022-07-31T10:17:06.494Z,99834.25
2022-07-31T10:19:12.326Z,99822.38
2022-07-31T10:21:17.421Z,99822.38
2022-07-31T10:23:25.580Z,99819.88
2022-07-31T10:25:31.140Z,99801.72
2022-07-31T10:27:32.981Z,99821.69
2022-07-31T10:29:41.543Z,99817.81
2022-07-31T10:31:45.043Z,99800.09
2022-07-31T10:33:47.794Z,99800.56
2022-07-31T10:36:13.552Z,99800.53
2022-07-31T10:38:27.331Z,99813.16
2022-07-31T10:40:34.798Z,99799.50
2022-07-31T10:43:03.191Z,99786.66
2022-07-31T10:45:06.956Z,99780.63
2022-07-31T10:47:15.375Z,99785.34
2022-07-31T10:49:17.074Z,99782.66
2022-07-31T10:51:19.393Z,99783.19
2022-07-31T10:53:21.256Z,99789.59
2022-07-31T10:55:43.740Z,99782.25
2022-07-31T10:57:55.243Z,99781.34
2022-07-31T11:00:13.499Z,99776.88
2022-07-31T11:03:23.338Z,99753.22
2022-07-31T11:05:27.901Z,99755.69
2022-07-31T11:07:29.820Z,99753.53
2022-07-31T11:09:31.434Z,99751.38
2022-07-31T11:11:37.448Z,99752.47
2022-07-31T11:13:52.482Z,99759.06
2022-07-31T11:16:05.341Z,99773.25
2022-07-31T18:07:13.071Z,99522.75
2022-07-31T18:09:16.665Z,99525.34
